createdAt,value
2018-10-02T00:00:48.733Z,7.40
2018-10-02T00:01:48.730Z,7.38
2018-10-02T00:02:48.727Z,7.38
2018-10-02T00:03:48.728Z,7.53
2018-10-02T00:04:48.720Z,7.53
2018-10-02T00:05:48.715Z,7.47
2018-10-02T00:06:48.719Z,7.56
2018-10-02T00:07:48.712Z,7.55
2018-10-02T00:08:48.709Z,7.59
2018-10-02T00:09:48.705Z,7.49
2018-10-02T00:10:48.712Z,7.53
2018-10-02T00:11:48.746Z,7.58
2018-10-02T00:12:48.691Z,7.50
2018-10-02T00:13:48.686Z,7.62
2018-10-02T00:14:48.682Z,7.56
2018-10-02T00:15:48.680Z,7.56
2018-10-02T00:16:48.670Z,7.62
2018-10-02T00:17:48.672Z,7.50
2018-10-02T00:18:48.664Z,7.56
2018-10-02T00:19:48.663Z,7.60
2018-10-02T00:20:48.670Z,7.56
2018-10-02T00:21:48.679Z,7.52
2018-10-02T00:22:48.654Z,7.45
2018-10-02T00:23:48.651Z,7.49
2018-10-02T00:24:48.644Z,7.45
2018-10-02T00:25:48.641Z,7.50
2018-10-02T00:26:48.671Z,7.45
2018-10-02T00:27:48.630Z,7.44
2018-10-02T00:28:48.629Z,7.44
2018-10-02T00:29:48.627Z,7.40
2018-10-02T00:30:48.633Z,7.34
2018-10-02T00:31:48.669Z,7.37
2018-10-02T00:32:48.614Z,7.34
2018-10-02T00:33:48.617Z,7.32
2018-10-02T00:34:48.606Z,7.37
2018-10-02T00:35:48.603Z,7.34
2018-10-02T00:36:48.597Z,7.29
2018-10-02T00:37:48.595Z,7.37
2018-10-02T00:38:48.587Z,7.34
2018-10-02T00:39:48.596Z,7.29
2018-10-02T00:40:48.597Z,7.31
2018-10-02T00:41:48.605Z,7.35
2018-10-02T00:42:48.582Z,7.37
2018-10-02T00:43:48.570Z,7.35
2018-10-02T00:44:48.580Z,7.40
2018-10-02T00:45:48.563Z,7.35
2018-10-02T00:46:48.557Z,7.34
2018-10-02T00:47:48.557Z,7.40
2018-10-02T00:48:48.548Z,7.31
2018-10-02T00:49:48.546Z,7.35
2018-10-02T00:50:48.568Z,7.40
2018-10-02T00:51:48.540Z,7.44
2018-10-02T00:52:48.533Z,7.34
2018-10-02T00:53:48.533Z,7.42
2018-10-02T00:54:48.528Z,7.40
2018-10-02T00:55:48.523Z,7.40
2018-10-02T00:56:48.525Z,7.34
2018-10-02T00:57:48.513Z,7.37
2018-10-02T00:58:48.520Z,7.35
2018-10-02T00:59:48.511Z,7.37
2018-10-02T01:00:48.508Z,7.26
2018-10-02T01:01:48.496Z,7.34
2018-10-02T01:02:48.503Z,7.35
2018-10-02T01:03:48.503Z,7.29
2018-10-02T01:04:48.487Z,7.23
2018-10-02T01:05:48.487Z,7.34
2018-10-02T01:06:48.486Z,7.27
2018-10-02T01:07:48.474Z,7.26
2018-10-02T01:08:48.471Z,7.15
2018-10-02T01:09:48.474Z,7.17
2018-10-02T01:10:48.458Z,7.20
2018-10-02T01:11:48.459Z,7.08
2018-10-02T01:12:48.474Z,7.16
2018-10-02T01:13:48.451Z,7.16
2018-10-02T01:14:48.461Z,7.16
2018-10-02T01:15:48.443Z,7.15
2018-10-02T01:16:48.439Z,7.13
2018-10-02T01:17:48.433Z,7.19
2018-10-02T01:18:48.430Z,7.15
2018-10-02T01:19:48.459Z,7.16
2018-10-02T01:20:48.425Z,7.16
2018-10-02T01:21:48.428Z,7.17
2018-10-02T01:22:48.418Z,7.20
2018-10-02T01:23:48.411Z,7.31
2018-10-02T01:24:48.404Z,7.29
2018-10-02T01:25:48.400Z,7.26
2018-10-02T01:26:48.394Z,7.23
2018-10-02T01:27:48.400Z,7.24
2018-10-02T01:28:48.395Z,7.26
2018-10-02T01:29:48.388Z,7.23
2018-10-02T01:30:48.381Z,7.17
2018-10-02T01:31:48.376Z,7.15
2018-10-02T01:32:48.374Z,7.16
2018-10-02T01:33:48.373Z,7.15
2018-10-02T01:34:48.361Z,7.17
2018-10-02T01:35:48.361Z,7.13
2018-10-02T01:36:48.361Z,7.19
2018-10-02T01:37:48.349Z,7.16
2018-10-02T01:38:48.346Z,7.19
2018-10-02T01:39:48.345Z,7.07
2018-10-02T01:40:48.353Z,6.97
2018-10-02T01:41:48.338Z,7.05
2018-10-02T01:42:48.334Z,6.95
2018-10-02T01:43:48.330Z,6.91
2018-10-02T01:44:48.324Z,6.90
2018-10-02T01:45:48.322Z,6.89
2018-10-02T01:46:48.314Z,6.94
2018-10-02T01:47:48.313Z,6.83
2018-10-02T01:48:48.310Z,6.72
2018-10-02T01:49:48.303Z,6.73
2018-10-02T01:50:48.303Z,6.63
2018-10-02T01:51:48.296Z,6.62
2018-10-02T01:52:48.284Z,6.61
2018-10-02T01:53:48.286Z,6.47
2018-10-02T01:54:48.288Z,6.53
2018-10-02T01:55:48.276Z,6.50
2018-10-02T01:56:48.273Z,6.51
2018-10-02T01:57:48.267Z,6.48
2018-10-02T01:58:48.276Z,6.41
2018-10-02T01:59:48.263Z,6.36
2018-10-02T02:00:48.253Z,6.38
2018-10-02T02:01:48.252Z,6.41
2018-10-02T02:02:48.256Z,6.38
2018-10-02T02:03:48.262Z,6.35
2018-10-02T02:04:48.240Z,6.30
2018-10-02T02:05:48.240Z,6.32
2018-10-02T02:06:48.236Z,6.18
2018-10-02T02:07:48.223Z,6.21
2018-10-02T02:08:48.229Z,6.21
2018-10-02T02:09:48.212Z,6.18
2018-10-02T02:10:48.214Z,6.21
2018-10-02T02:11:48.212Z,6.18
2018-10-02T02:12:48.198Z,6.13
2018-10-02T02:13:48.198Z,6.14
2018-10-02T02:14:48.187Z,6.11
2018-10-02T02:15:48.183Z,6.13
2018-10-02T02:16:48.182Z,6.14
2018-10-02T02:17:48.172Z,6.22
2018-10-02T02:18:48.170Z,6.21
2018-10-02T02:19:48.162Z,6.21
2018-10-02T02:20:48.180Z,6.16
2018-10-02T02:21:48.163Z,6.16
2018-10-02T02:22:48.150Z,6.19
2018-10-02T02:23:48.152Z,6.22
2018-10-02T02:24:48.144Z,6.18
2018-10-02T02:25:48.134Z,6.16
2018-10-02T02:26:48.127Z,6.19
2018-10-02T02:27:48.128Z,6.14
2018-10-02T02:28:48.119Z,6.19
2018-10-02T02:29:48.131Z,6.16
2018-10-02T02:30:48.113Z,6.10
2018-10-02T02:31:48.104Z,6.18
2018-10-02T02:32:48.110Z,6.14
2018-10-02T02:33:48.113Z,6.13
2018-10-02T02:34:48.092Z,6.07
2018-10-02T02:35:48.083Z,6.13
2018-10-02T02:36:48.098Z,6.18
2018-10-02T02:37:48.101Z,6.13
2018-10-02T02:38:48.095Z,6.13
2018-10-02T02:39:48.062Z,6.21
2018-10-02T02:40:48.060Z,6.14
2018-10-02T02:41:48.066Z,6.19
2018-10-02T02:42:48.048Z,6.21
2018-10-02T02:43:48.048Z,6.29
2018-10-02T02:44:48.053Z,6.13
2018-10-02T02:45:48.035Z,6.19
2018-10-02T02:46:48.029Z,6.18
2018-10-02T02:47:48.021Z,6.11
2018-10-02T02:48:48.030Z,6.29
2018-10-02T02:49:48.010Z,6.13
2018-10-02T02:50:48.005Z,6.35
2018-10-02T02:51:48.003Z,6.21
2018-10-02T02:52:47.996Z,6.32
2018-10-02T02:53:47.992Z,6.35
2018-10-02T02:54:47.988Z,6.36
2018-10-02T02:55:48.013Z,6.38
2018-10-02T02:56:47.976Z,6.35
2018-10-02T02:57:47.974Z,6.36
2018-10-02T02:58:47.983Z,6.29
2018-10-02T02:59:47.962Z,6.30
2018-10-02T03:00:47.957Z,6.41
2018-10-02T03:01:47.989Z,6.38
2018-10-02T03:02:47.946Z,6.40
2018-10-02T03:03:47.970Z,6.38
2018-10-02T03:04:47.944Z,6.38
2018-10-02T03:05:47.958Z,6.33
2018-10-02T03:06:47.952Z,6.43
2018-10-02T03:07:47.941Z,6.41
2018-10-02T03:08:47.916Z,6.43
2018-10-02T03:09:47.925Z,6.35
2018-10-02T03:10:47.904Z,6.30
2018-10-02T03:11:47.941Z,6.22
2018-10-02T03:12:47.904Z,6.22
2018-10-02T03:13:47.894Z,6.25
2018-10-02T03:14:47.892Z,6.18
2018-10-02T03:15:47.884Z,6.19
2018-10-02T03:16:47.892Z,6.18
2018-10-02T03:17:47.873Z,6.18
2018-10-02T03:18:47.890Z,6.19
2018-10-02T03:19:47.862Z,6.14
2018-10-02T03:20:47.857Z,6.16
2018-10-02T03:21:47.889Z,6.16
2018-10-02T03:22:47.855Z,6.11
2018-10-02T03:23:47.849Z,6.14
2018-10-02T03:24:47.834Z,6.13
2018-10-02T03:25:47.848Z,6.16
2018-10-02T03:26:47.832Z,6.18
2018-10-02T03:27:47.839Z,6.13
2018-10-02T03:28:47.825Z,6.25
2018-10-02T03:29:47.834Z,6.16
2018-10-02T03:30:47.833Z,6.25
2018-10-02T03:31:47.841Z,6.22
2018-10-02T03:32:47.825Z,6.21
2018-10-02T03:33:47.880Z,6.19
2018-10-02T03:34:47.823Z,6.18
2018-10-02T03:35:47.809Z,6.26
2018-10-02T03:36:47.774Z,6.19
2018-10-02T03:37:47.817Z,6.25
2018-10-02T03:38:47.779Z,6.25
2018-10-02T03:39:47.775Z,6.21
2018-10-02T03:40:47.778Z,6.21
2018-10-02T03:41:47.803Z,6.33
2018-10-02T03:42:47.747Z,6.40
2018-10-02T03:43:47.772Z,6.38
2018-10-02T03:44:47.793Z,6.40
2018-10-02T03:45:47.807Z,6.38
2018-10-02T03:46:47.798Z,6.41
2018-10-02T03:47:47.721Z,6.38
2018-10-02T03:48:47.803Z,6.38
2018-10-02T03:49:47.738Z,6.38
2018-10-02T03:50:47.782Z,6.41
2018-10-02T03:51:47.746Z,6.38
2018-10-02T03:52:47.737Z,6.41
2018-10-02T03:53:47.736Z,6.43
2018-10-02T03:54:47.750Z,6.40
2018-10-02T03:55:47.765Z,6.38
2018-10-02T03:56:47.751Z,6.32
2018-10-02T03:57:47.671Z,6.33
2018-10-02T03:58:47.674Z,6.38
2018-10-02T03:59:47.659Z,6.36
2018-10-02T04:00:47.659Z,6.38
2018-10-02T04:01:47.649Z,6.46
2018-10-02T04:02:47.651Z,6.48
2018-10-02T04:03:47.657Z,6.51
2018-10-02T04:04:47.669Z,6.44
2018-10-02T04:05:47.631Z,6.40
2018-10-02T04:06:47.638Z,6.40
2018-10-02T04:07:47.624Z,6.43
2018-10-02T04:08:47.619Z,6.46
2018-10-02T04:09:47.616Z,6.40
2018-10-02T04:10:47.609Z,6.46
2018-10-02T04:11:47.626Z,6.41
2018-10-02T04:12:47.598Z,6.44
2018-10-02T04:13:47.594Z,6.32
2018-10-02T04:14:47.591Z,6.38
2018-10-02T04:15:47.579Z,6.38
2018-10-02T04:16:47.573Z,6.36
2018-10-02T04:17:47.571Z,6.36
2018-10-02T04:18:47.595Z,6.30
2018-10-02T04:19:47.575Z,6.38
2018-10-02T04:20:47.641Z,6.38
2018-10-02T04:21:47.550Z,6.35
2018-10-02T04:22:47.554Z,6.38
2018-10-02T04:23:47.540Z,6.32
2018-10-02T04:24:47.533Z,6.40
2018-10-02T04:25:47.540Z,6.30
2018-10-02T04:26:47.530Z,6.25
2018-10-02T04:27:47.581Z,6.19
2018-10-02T04:28:47.547Z,6.22
2018-10-02T04:29:47.516Z,6.19
2018-10-02T04:30:47.505Z,6.19
2018-10-02T04:31:47.506Z,6.21
2018-10-02T04:32:47.498Z,6.26
2018-10-02T04:33:47.526Z,6.16
2018-10-02T04:34:47.491Z,6.18
2018-10-02T04:35:47.501Z,6.19
2018-10-02T04:36:47.479Z,6.13
2018-10-02T04:37:47.472Z,6.21
2018-10-02T04:38:47.467Z,6.16
2018-10-02T04:39:47.496Z,6.18
2018-10-02T04:40:47.454Z,6.18
2018-10-02T04:41:47.451Z,6.22
2018-10-02T04:42:47.457Z,6.19
2018-10-02T04:43:47.476Z,6.21
2018-10-02T04:44:47.451Z,6.10
2018-10-02T04:45:49.239Z,6.22
2018-10-02T04:46:47.432Z,6.14
2018-10-02T04:47:47.441Z,6.21
2018-10-02T04:48:47.417Z,6.13
2018-10-02T04:49:47.418Z,6.25
2018-10-02T04:50:47.411Z,6.16
2018-10-02T04:51:47.405Z,6.16
2018-10-02T04:52:47.424Z,6.11
2018-10-02T04:53:47.405Z,6.07
2018-10-02T04:54:47.401Z,6.13
2018-10-02T04:55:47.546Z,6.11
2018-10-02T04:56:47.402Z,6.07
2018-10-02T04:57:47.371Z,6.09
2018-10-02T04:58:47.362Z,6.09
2018-10-02T04:59:47.362Z,6.10
2018-10-02T05:00:47.357Z,6.11
2018-10-02T05:01:47.375Z,6.09
2018-10-02T05:02:47.342Z,6.10
2018-10-02T05:03:47.344Z,6.06
2018-10-02T05:04:47.368Z,6.07
2018-10-02T05:05:47.329Z,6.11
2018-10-02T05:06:47.327Z,6.19
2018-10-02T05:07:47.332Z,6.18
2018-10-02T05:08:47.375Z,6.19
2018-10-02T05:09:47.326Z,6.30
2018-10-02T05:10:47.336Z,6.25
2018-10-02T05:11:47.303Z,6.22
2018-10-02T05:12:47.295Z,6.26
2018-10-02T05:13:47.286Z,6.25
2018-10-02T05:14:47.290Z,6.22
2018-10-02T05:15:47.277Z,6.21
2018-10-02T05:16:47.279Z,6.25
2018-10-02T05:17:47.270Z,6.13
2018-10-02T05:18:47.265Z,6.11
2018-10-02T05:19:47.271Z,6.13
2018-10-02T05:20:47.300Z,6.07
2018-10-02T05:21:47.247Z,6.13
2018-10-02T05:22:47.256Z,6.06
2018-10-02T05:23:47.303Z,6.10
2018-10-02T05:24:54.451Z,6.04
2018-10-02T05:26:40.159Z,6.16
2018-10-02T05:27:47.387Z,6.13
2018-10-02T05:29:33.007Z,6.13
2018-10-02T05:30:32.954Z,6.11
2018-10-02T05:32:26.379Z,6.21
2018-10-02T05:33:26.365Z,6.22
2018-10-02T05:35:19.377Z,6.18
2018-10-02T05:36:19.190Z,6.18
2018-10-02T05:38:12.097Z,6.28
2018-10-02T05:39:12.067Z,6.22
2018-10-02T05:41:04.943Z,6.25
2018-10-02T05:42:04.903Z,6.30
2018-10-02T05:43:57.809Z,6.32
2018-10-02T05:44:57.788Z,6.28
2018-10-02T05:46:50.682Z,6.41
2018-10-02T05:47:50.623Z,6.30
2018-10-02T05:48:50.616Z,6.36
2018-10-02T05:49:50.713Z,6.33
2018-10-02T05:50:50.574Z,6.44
2018-10-02T05:51:50.572Z,6.38
2018-10-02T05:52:50.559Z,6.50
2018-10-02T05:53:50.571Z,6.50
2018-10-02T05:54:50.550Z,6.41
2018-10-02T05:55:50.553Z,6.48
2018-10-02T05:56:50.560Z,6.41
2018-10-02T05:57:50.540Z,6.50
2018-10-02T05:58:50.533Z,6.48
2018-10-02T05:59:50.527Z,6.44
2018-10-02T06:00:50.521Z,6.50
2018-10-02T06:01:50.517Z,6.50
2018-10-02T06:02:50.509Z,6.59
2018-10-02T06:03:50.540Z,6.71
2018-10-02T06:04:50.523Z,6.71
2018-10-02T06:05:50.497Z,6.73
2018-10-02T06:06:50.497Z,6.76
2018-10-02T06:07:50.487Z,6.80
2018-10-02T06:08:50.522Z,6.83
2018-10-02T06:09:50.479Z,6.72
2018-10-02T06:10:50.473Z,6.77
2018-10-02T06:11:50.487Z,6.76
2018-10-02T06:12:50.734Z,6.81
2018-10-02T06:13:50.543Z,6.77
2018-10-02T06:14:50.487Z,6.84
2018-10-02T06:15:50.448Z,6.80
2018-10-02T06:16:50.496Z,6.81
2018-10-02T06:17:50.485Z,6.91
2018-10-02T06:18:50.528Z,6.89
2018-10-02T06:19:50.472Z,6.81
2018-10-02T06:20:50.443Z,6.90
2018-10-02T06:21:50.420Z,6.97
2018-10-02T06:22:50.416Z,6.95
2018-10-02T06:23:50.412Z,6.95
2018-10-02T06:24:50.531Z,6.80
2018-10-02T06:25:50.406Z,6.90
2018-10-02T06:26:50.402Z,6.95
2018-10-02T06:27:50.390Z,6.99
2018-10-02T06:28:50.390Z,6.90
2018-10-02T06:29:50.405Z,6.94
2018-10-02T06:30:50.378Z,6.91
2018-10-02T06:31:50.370Z,6.98
2018-10-02T06:32:50.475Z,6.97
2018-10-02T06:33:50.363Z,6.95
2018-10-02T06:34:50.391Z,6.89
2018-10-02T06:35:50.352Z,6.80
2018-10-02T06:36:50.403Z,6.79
2018-10-02T06:37:50.369Z,6.80
2018-10-02T06:38:50.401Z,6.94
2018-10-02T06:39:50.332Z,6.79
2018-10-02T06:40:50.329Z,6.83
2018-10-02T06:41:50.328Z,6.76
2018-10-02T06:42:50.319Z,6.77
2018-10-02T06:43:50.376Z,6.63
2018-10-02T06:44:50.340Z,6.69
2018-10-02T06:45:50.326Z,6.71
2018-10-02T06:46:51.170Z,6.66
2018-10-02T06:47:50.321Z,6.63
2018-10-02T06:48:50.370Z,6.62
2018-10-02T06:49:50.360Z,6.58
2018-10-02T06:50:50.360Z,6.54
2018-10-02T06:51:50.334Z,6.61
2018-10-02T06:52:50.704Z,6.62
2018-10-02T06:53:50.433Z,6.63
2018-10-02T06:54:50.445Z,6.62
2018-10-02T06:55:51.166Z,6.63
2018-10-02T06:56:50.348Z,6.73
2018-10-02T06:57:52.185Z,6.65
2018-10-02T06:58:50.261Z,6.69
2018-10-02T06:59:50.243Z,6.80
2018-10-02T07:00:50.232Z,6.77
2018-10-02T07:01:50.253Z,6.79
2018-10-02T07:02:50.254Z,6.77
2018-10-02T07:03:50.212Z,6.86
2018-10-02T07:04:50.871Z,6.83
2018-10-02T07:05:50.210Z,6.83
2018-10-02T07:06:50.279Z,6.83
2018-10-02T07:07:50.199Z,6.90
2018-10-02T07:08:50.211Z,6.90
2018-10-02T07:09:50.227Z,6.99
2018-10-02T07:10:57.925Z,7.09
2018-10-02T07:12:43.292Z,7.13
2018-10-02T07:13:43.636Z,7.07
2018-10-02T07:15:36.772Z,7.04
2018-10-02T07:16:36.754Z,7.05
2018-10-02T07:18:31.218Z,6.95
2018-10-02T07:19:29.963Z,7.01
2018-10-02T07:21:23.147Z,6.98
2018-10-02T07:22:22.966Z,7.02
2018-10-02T07:24:17.897Z,7.05
2018-10-02T07:25:17.096Z,7.12
2018-10-02T07:26:16.952Z,6.99
2018-10-02T07:27:16.848Z,6.99
2018-10-02T07:28:19.165Z,6.99
2018-10-02T07:29:17.318Z,6.98
2018-10-02T07:30:16.729Z,7.13
2018-10-02T07:31:16.664Z,7.12
2018-10-02T07:32:16.685Z,7.09
2018-10-02T07:33:16.663Z,7.05
2018-10-02T07:34:16.626Z,7.19
2018-10-02T07:35:16.682Z,7.17
2018-10-02T07:36:16.624Z,7.29
2018-10-02T07:37:18.629Z,7.32
2018-10-02T07:38:19.631Z,7.22
2018-10-02T07:39:16.633Z,7.23
2018-10-02T07:40:18.628Z,7.16
2018-10-02T07:41:16.625Z,7.24
2018-10-02T07:42:16.626Z,7.27
2018-10-02T07:43:16.605Z,7.19
2018-10-02T07:44:16.601Z,7.23
2018-10-02T07:45:16.580Z,7.34
2018-10-02T07:46:16.634Z,7.29
2018-10-02T07:47:16.607Z,7.27
2018-10-02T07:48:16.640Z,7.22
2018-10-02T07:49:16.621Z,7.27
2018-10-02T07:50:16.584Z,7.23
2018-10-02T07:51:19.072Z,7.29
2018-10-02T07:52:16.579Z,7.34
2018-10-02T07:53:16.539Z,7.32
2018-10-02T07:54:16.562Z,7.32
2018-10-02T07:55:16.542Z,7.37
2018-10-02T07:56:18.177Z,7.42
2018-10-02T07:57:16.579Z,7.37
2018-10-02T07:58:16.612Z,7.31
2018-10-02T07:59:16.512Z,7.40
2018-10-02T08:00:16.544Z,7.49
2018-10-02T08:01:16.509Z,7.58
2018-10-02T08:02:16.523Z,7.44
2018-10-02T08:03:16.552Z,7.50
2018-10-02T08:04:16.521Z,7.58
2018-10-02T08:05:16.636Z,7.63
2018-10-02T08:06:16.512Z,7.77
2018-10-02T08:07:16.498Z,7.78
2018-10-02T08:08:16.472Z,7.81
2018-10-02T08:09:16.481Z,7.85
2018-10-02T08:10:16.469Z,7.87
2018-10-02T08:11:16.463Z,7.97
2018-10-02T08:12:16.640Z,8.02
2018-10-02T08:13:16.472Z,7.99
2018-10-02T08:14:16.454Z,7.94
2018-10-02T08:15:16.453Z,8.03
2018-10-02T08:16:16.497Z,7.82
2018-10-02T08:17:16.447Z,7.81
2018-10-02T08:18:16.437Z,7.87
2018-10-02T08:19:16.453Z,7.85
2018-10-02T08:20:16.430Z,7.85
2018-10-02T08:21:16.434Z,7.85
2018-10-02T08:22:16.441Z,7.87
2018-10-02T08:23:16.451Z,7.89
2018-10-02T08:24:16.437Z,7.97
2018-10-02T08:25:16.411Z,7.85
2018-10-02T08:26:16.404Z,7.87
2018-10-02T08:27:16.584Z,7.89
2018-10-02T08:28:16.398Z,7.90
2018-10-02T08:29:16.434Z,8.00
2018-10-02T08:30:16.438Z,7.89
2018-10-02T08:31:16.392Z,7.84
2018-10-02T08:32:16.385Z,7.81
2018-10-02T08:33:16.385Z,7.67
2018-10-02T08:34:16.377Z,7.66
2018-10-02T08:35:16.389Z,7.63
2018-10-02T08:36:16.448Z,7.66
2018-10-02T08:37:16.411Z,7.66
2018-10-02T08:38:16.381Z,7.62
2018-10-02T08:39:16.362Z,7.74
2018-10-02T08:40:16.352Z,7.71
2018-10-02T08:41:16.346Z,7.50
2018-10-02T08:42:16.350Z,7.53
2018-10-02T08:43:16.382Z,7.44
2018-10-02T08:44:16.342Z,7.44
2018-10-02T08:45:16.337Z,7.50
2018-10-02T08:46:16.333Z,7.45
2018-10-02T08:47:16.324Z,7.45
2018-10-02T08:48:16.319Z,7.44
2018-10-02T08:49:16.316Z,7.35
2018-10-02T08:50:16.343Z,7.34
2018-10-02T08:51:16.313Z,7.23
2018-10-02T08:52:16.509Z,7.26
2018-10-02T08:53:16.299Z,7.16
2018-10-02T08:54:16.324Z,7.22
2018-10-02T08:55:16.290Z,7.20
2018-10-02T08:56:16.290Z,7.22
2018-10-02T08:57:16.285Z,7.26
2018-10-02T08:58:16.343Z,7.20
2018-10-02T08:59:16.274Z,7.23
2018-10-02T09:00:16.273Z,7.26
2018-10-02T09:01:16.270Z,7.34
2018-10-02T09:02:16.260Z,7.32
2018-10-02T09:03:16.339Z,7.32
2018-10-02T09:04:16.258Z,7.37
2018-10-02T09:05:16.284Z,7.26
2018-10-02T09:06:16.269Z,7.34
2018-10-02T09:16:35.100Z,7.59
2018-10-02T09:17:35.406Z,7.55
2018-10-02T09:19:40.928Z,7.56
2018-10-02T09:20:40.166Z,7.60
2018-10-02T09:21:40.013Z,7.50
2018-10-02T09:22:40.116Z,7.58
2018-10-02T09:23:48.145Z,7.55
2018-10-02T09:25:35.273Z,7.69
2018-10-02T09:26:33.478Z,7.62
2018-10-02T09:27:34.621Z,7.62
2018-10-02T09:28:35.042Z,7.40
2018-10-02T09:29:35.093Z,7.49
2018-10-02T09:30:35.168Z,7.47
2018-10-02T09:31:33.521Z,7.42
2018-10-02T09:32:33.126Z,7.45
2018-10-02T09:33:34.084Z,7.42
2018-10-02T09:34:33.452Z,7.45
2018-10-02T09:35:33.034Z,7.37
2018-10-02T09:36:33.069Z,7.45
2018-10-02T09:37:33.034Z,7.44
2018-10-02T09:38:33.021Z,7.44
2018-10-02T09:39:33.067Z,7.41
2018-10-02T09:40:33.010Z,7.45
2018-10-02T09:41:33.022Z,7.41
2018-10-02T09:42:33.079Z,7.37
2018-10-02T09:43:33.036Z,7.49
2018-10-02T09:44:33.352Z,7.44
2018-10-02T09:45:33.045Z,7.37
2018-10-02T09:46:33.033Z,7.38
2018-10-02T09:47:32.990Z,7.31
2018-10-02T09:48:33.021Z,7.32
2018-10-02T09:49:33.010Z,7.35
2018-10-02T09:50:34.699Z,7.37
2018-10-02T09:51:33.071Z,7.47
2018-10-02T09:52:33.276Z,7.38
2018-10-02T09:53:32.964Z,7.38
2018-10-02T09:54:33.678Z,7.37
2018-10-02T10:00:22.304Z,7.29
2018-10-02T10:03:39.173Z,7.29
2018-10-02T10:04:53.834Z,7.27
2018-10-02T10:05:40.436Z,7.26
2018-10-02T10:10:26.867Z,7.16
2018-10-02T10:11:27.484Z,7.16
2018-10-02T10:16:43.478Z,7.26
2018-10-02T10:17:19.759Z,7.23
2018-10-02T10:18:16.549Z,7.17
2018-10-02T10:19:22.239Z,7.26
2018-10-02T10:20:14.668Z,7.23
2018-10-02T10:22:56.854Z,7.20
2018-10-02T10:23:55.800Z,7.27
2018-10-02T10:24:52.195Z,7.16
2018-10-02T10:25:53.845Z,7.20
2018-10-02T10:26:52.472Z,7.27
2018-10-02T10:27:55.937Z,7.17
2018-10-02T10:28:52.461Z,7.32
2018-10-02T10:29:52.518Z,7.17
2018-10-02T10:30:53.048Z,7.17
2018-10-02T10:31:52.036Z,7.16
2018-10-02T10:32:52.012Z,7.19
2018-10-02T10:33:52.002Z,7.23
2018-10-02T10:34:52.060Z,7.29
2018-10-02T10:35:52.018Z,7.29
2018-10-02T10:36:53.077Z,7.34
2018-10-02T10:39:48.568Z,7.34
2018-10-02T10:40:50.283Z,7.35
2018-10-02T10:45:13.117Z,7.37
2018-10-02T10:46:13.233Z,7.35
2018-10-02T10:48:25.710Z,7.37
2018-10-02T10:49:26.690Z,7.29
2018-10-02T10:51:12.134Z,7.37
2018-10-02T10:52:12.096Z,7.37
2018-10-02T10:54:12.816Z,7.47
2018-10-02T10:56:52.223Z,7.52
2018-10-02T10:57:36.747Z,7.47
2018-10-02T11:00:10.384Z,7.34
2018-10-02T11:10:51.097Z,7.41
2018-10-02T11:18:27.129Z,7.29
2018-10-02T11:19:11.650Z,7.37
2018-10-02T11:21:05.024Z,7.38
2018-10-02T11:22:05.044Z,7.34
2018-10-02T11:46:50.586Z,7.42
2018-10-02T11:49:57.555Z,7.35
2018-10-02T11:57:58.065Z,7.35
2018-10-02T12:01:00.142Z,7.42
2018-10-02T12:01:45.639Z,7.38
2018-10-02T12:08:05.423Z,7.52
2018-10-02T12:09:05.376Z,7.75
2018-10-02T12:10:58.468Z,7.75
2018-10-02T12:13:38.756Z,7.77
2018-10-02T12:14:39.154Z,7.77
2018-10-02T12:16:33.449Z,7.82
2018-10-02T12:17:32.499Z,7.84
2018-10-02T12:19:27.689Z,7.82
2018-10-02T12:20:27.594Z,7.78
2018-10-02T12:21:27.011Z,7.71
2018-10-02T12:22:26.927Z,7.72
2018-10-02T12:23:26.720Z,7.72
2018-10-02T12:24:26.679Z,7.74
2018-10-02T12:25:26.778Z,7.84
2018-10-02T12:26:26.721Z,7.75
2018-10-02T12:27:26.568Z,7.79
2018-10-02T12:28:26.692Z,7.74
2018-10-02T12:29:29.698Z,7.84
2018-10-02T12:30:35.895Z,7.67
2018-10-02T12:32:19.801Z,7.75
2018-10-02T12:33:20.130Z,7.79
2018-10-02T12:35:13.291Z,7.85
2018-10-02T12:36:13.707Z,7.90
2018-10-02T12:38:08.086Z,7.81
2018-10-02T12:39:07.153Z,7.78
2018-10-02T12:40:59.775Z,7.77
2018-10-02T12:41:59.421Z,7.78
2018-10-02T12:48:30.941Z,7.71
2018-10-02T12:49:28.000Z,7.69
2018-10-02T12:50:36.202Z,7.75
2018-10-02T12:52:22.432Z,7.74
2018-10-02T12:53:22.300Z,7.71
2018-10-02T12:55:31.740Z,7.82
2018-10-02T12:56:32.209Z,7.90
2018-10-02T12:58:38.255Z,8.02
2018-10-02T13:02:26.068Z,8.02
2018-10-02T13:03:33.949Z,8.00
2018-10-02T13:05:18.522Z,8.04
2018-10-02T13:06:19.326Z,8.03
2018-10-02T13:08:14.042Z,8.04
2018-10-02T13:09:13.588Z,7.99
2018-10-02T13:11:06.018Z,8.04
2018-10-02T13:12:06.022Z,8.10
2018-10-02T13:14:01.968Z,8.21
2018-10-02T13:15:11.910Z,8.25
2018-10-02T13:15:59.894Z,8.22
2018-10-02T13:16:59.889Z,8.29
2018-10-02T13:18:00.685Z,8.18
2018-10-02T13:18:59.902Z,8.35
2018-10-02T13:19:59.945Z,8.35
2018-10-02T13:22:22.621Z,8.42
2018-10-02T13:23:24.112Z,8.33
2018-10-02T13:25:16.612Z,8.42
2018-10-02T13:26:15.552Z,8.36
2018-10-02T13:28:10.781Z,8.42
2018-10-02T13:29:09.098Z,8.45
2018-10-02T13:31:01.895Z,8.39
2018-10-02T13:32:02.208Z,8.54
2018-10-02T13:33:54.965Z,8.54
2018-10-02T13:34:54.861Z,8.73
2018-10-02T13:36:48.044Z,8.90
2018-10-02T13:37:48.255Z,8.81
2018-10-02T13:39:40.666Z,8.88
2018-10-02T13:40:40.677Z,8.96
2018-10-02T13:42:34.539Z,8.99
2018-10-02T13:43:34.141Z,8.97
2018-10-02T13:45:27.657Z,9.06
2018-10-02T13:46:27.854Z,9.02
2018-10-02T13:48:22.254Z,8.90
2018-10-02T13:49:22.210Z,8.78
2018-10-02T13:51:15.145Z,8.71
2018-10-02T13:52:15.312Z,8.68
2018-10-02T13:54:07.977Z,8.71
2018-10-02T13:55:07.939Z,8.72
2018-10-02T13:57:00.818Z,8.79
2018-10-02T13:58:00.885Z,8.83
2018-10-02T13:59:54.041Z,8.69
2018-10-02T14:00:53.684Z,8.68
2018-10-02T14:01:53.638Z,8.76
2018-10-02T14:02:53.685Z,8.73
2018-10-02T14:03:53.623Z,8.53
2018-10-02T14:04:53.611Z,8.65
2018-10-02T14:05:53.695Z,8.58
2018-10-02T14:07:26.304Z,8.66
2018-10-02T14:08:27.859Z,8.69
2018-10-02T14:08:53.776Z,8.66
2018-10-02T14:09:55.324Z,8.58
2018-10-02T14:10:53.625Z,8.55
2018-10-02T14:11:53.585Z,8.53
2018-10-02T14:12:53.587Z,8.55
2018-10-02T14:13:53.612Z,8.58
2018-10-02T14:14:53.655Z,8.71
2018-10-02T14:15:53.577Z,8.81
2018-10-02T14:16:53.568Z,8.79
2018-10-02T14:17:53.571Z,8.88
2018-10-02T14:18:53.567Z,9.02
2018-10-02T14:19:53.591Z,8.99
2018-10-02T14:20:53.555Z,8.99
2018-10-02T14:21:55.200Z,9.05
2018-10-02T14:22:54.633Z,8.99
2018-10-02T14:23:53.747Z,9.12
2018-10-02T14:24:53.547Z,9.05
2018-10-02T14:25:53.597Z,8.97
2018-10-02T14:26:53.591Z,9.04
2018-10-02T14:27:53.580Z,9.10
2018-10-02T14:28:53.537Z,9.25
2018-10-02T14:29:56.256Z,9.23
2018-10-02T14:32:50.292Z,9.04
2018-10-02T14:33:35.861Z,9.10
2018-10-02T14:35:29.628Z,9.10
2018-10-02T14:36:29.501Z,9.10
2018-10-02T14:38:23.525Z,8.97
2018-10-02T14:39:23.621Z,9.09
2018-10-02T14:41:16.372Z,9.10
2018-10-02T14:42:16.270Z,8.93
2018-10-02T14:44:09.231Z,8.65
2018-10-02T14:45:09.238Z,8.71
2018-10-02T14:47:02.088Z,8.58
2018-10-02T14:48:01.981Z,8.48
2018-10-02T14:49:54.891Z,8.47
2018-10-02T14:50:55.083Z,8.40
2018-10-02T14:52:47.832Z,8.35
2018-10-02T14:53:47.877Z,8.29
2018-10-02T14:55:40.674Z,8.17
2018-10-02T14:56:40.636Z,8.22
2018-10-02T14:58:34.055Z,8.21
2018-10-02T14:59:34.010Z,8.21
2018-10-02T15:01:26.858Z,8.14
2018-10-02T15:02:26.863Z,8.11
2018-10-02T15:04:19.930Z,8.20
2018-10-02T15:05:19.948Z,8.26
2018-10-02T15:07:13.379Z,8.17
2018-10-02T15:08:14.079Z,8.11
2018-10-02T15:10:05.726Z,8.11
2018-10-02T15:11:05.607Z,8.08
2018-10-02T15:12:59.432Z,8.07
2018-10-02T15:13:59.158Z,8.04
2018-10-02T15:14:59.204Z,8.12
2018-10-02T15:15:59.059Z,8.12
2018-10-02T15:16:59.213Z,8.11
2018-10-02T15:17:59.072Z,8.15
2018-10-02T15:18:59.070Z,8.26
2018-10-02T15:19:59.044Z,8.15
2018-10-02T15:20:59.038Z,8.15
2018-10-02T15:21:59.033Z,8.15
2018-10-02T15:22:59.046Z,8.12
2018-10-02T15:23:59.079Z,8.14
2018-10-02T15:24:59.019Z,8.15
2018-10-02T15:25:59.018Z,8.11
2018-10-02T15:26:59.013Z,8.21
2018-10-02T15:27:59.010Z,8.15
2018-10-02T15:28:59.014Z,8.02
2018-10-02T15:29:59.000Z,8.11
2018-10-02T15:30:59.000Z,8.10
2018-10-02T15:31:58.998Z,8.12
2018-10-02T15:32:58.985Z,8.12
2018-10-02T15:33:58.981Z,7.99
2018-10-02T15:34:58.984Z,8.03
2018-10-02T15:35:58.972Z,7.99
2018-10-02T15:36:58.967Z,8.12
2018-10-02T15:37:58.979Z,8.15
2018-10-02T15:38:58.957Z,8.08
2018-10-02T15:39:58.957Z,8.03
2018-10-02T15:40:58.954Z,8.10
2018-10-02T15:41:58.946Z,8.17
2018-10-02T15:42:58.943Z,8.04
2018-10-02T15:43:58.958Z,8.17
2018-10-02T15:44:58.938Z,8.11
2018-10-02T15:45:58.934Z,7.99
2018-10-02T15:46:58.926Z,8.03
2018-10-02T15:47:58.953Z,7.99
2018-10-02T15:48:58.920Z,8.04
2018-10-02T15:49:58.915Z,7.99
2018-10-02T15:50:58.947Z,8.08
2018-10-02T15:51:58.918Z,8.02
2018-10-02T15:52:58.902Z,8.03
2018-10-02T15:53:58.898Z,7.99
2018-10-02T15:54:58.895Z,8.12
2018-10-02T15:55:58.894Z,8.00